<?xml version="1.0" encoding="UTF-8" standalone="no" ?>
<gpx xmlns="http://www.topografix.com/GPX/1/1" xmlns:xsi="http://www.w3.org/2001/XMLSchema-instance" xsi:schemaLocation="http://www.topografix.com/GPX/1/1 http://www.topografix.com/GPX/1/1/gpx.xsd" version="1.1" creator="VisuGPX - https://www.visugpx.com">
  <metadata>
    <name>La Rando Gadoue</name>
    <desc><![CDATA[Rando Gadoue du 17 novembre 2019
Circuit de 9 km
Plus d'infos sur www.sentierslangeaisiens.fr]]></desc>
  </metadata>
  <trk>
    <name><![CDATA[10522265-gadoue 2019]]></name>
    <trkseg>
      <trkpt lat="47.32754" lon="0.39839">
        <ele>47</ele>
        <time>2019-09-17T17:44:18Z</time>
      </trkpt>
      <trkpt lat="47.3286" lon="0.39765">
        <ele>47</ele>
        <time>2019-09-17T17:46:54Z</time>
      </trkpt>
      <trkpt lat="47.32861" lon="0.39716">
        <ele>49</ele>
        <time>2019-09-17T17:47:39Z</time>
      </trkpt>
      <trkpt lat="47.32907" lon="0.39569">
        <ele>57</ele>
        <time>2019-09-17T17:50:05Z</time>
      </trkpt>
      <trkpt lat="47.33004" lon="0.3952">
        <ele>74</ele>
        <time>2019-09-17T17:52:22Z</time>
      </trkpt>
      <trkpt lat="47.3307" lon="0.39426">
        <ele>79</ele>
        <time>2019-09-17T17:54:25Z</time>
      </trkpt>
      <trkpt lat="47.33088" lon="0.39349">
        <ele>79</ele>
        <time>2019-09-17T17:55:38Z</time>
      </trkpt>
      <trkpt lat="47.33224" lon="0.39214">
        <ele>82</ele>
        <time>2019-09-17T17:59:17Z</time>
      </trkpt>
      <trkpt lat="47.33372" lon="0.39114">
        <ele>79</ele>
        <time>2019-09-17T18:02:54Z</time>
      </trkpt>
      <trkpt lat="47.33405" lon="0.39099">
        <ele>78</ele>
        <time>2019-09-17T18:03:40Z</time>
      </trkpt>
      <trkpt lat="47.33524" lon="0.39094">
        <ele>76</ele>
        <time>2019-09-17T18:06:19Z</time>
      </trkpt>
      <trkpt lat="47.33583" lon="0.39017">
        <ele>76</ele>
        <time>2019-09-17T18:08:04Z</time>
      </trkpt>
      <trkpt lat="47.33698" lon="0.39002">
        <ele>77</ele>
        <time>2019-09-17T18:10:38Z</time>
      </trkpt>
      <trkpt lat="47.33812" lon="0.38901">
        <ele>82</ele>
        <time>2019-09-17T18:13:36Z</time>
      </trkpt>
      <trkpt lat="47.33893" lon="0.38589">
        <ele>85</ele>
        <time>2019-09-17T18:18:38Z</time>
      </trkpt>
      <trkpt lat="47.33988" lon="0.3827">
        <ele>93</ele>
        <time>2019-09-17T18:23:53Z</time>
      </trkpt>
      <trkpt lat="47.3395" lon="0.38197">
        <ele>94</ele>
        <time>2019-09-17T18:25:16Z</time>
      </trkpt>
      <trkpt lat="47.33934" lon="0.38109">
        <ele>94</ele>
        <time>2019-09-17T18:26:39Z</time>
      </trkpt>
      <trkpt lat="47.34059" lon="0.38006">
        <ele>97</ele>
        <time>2019-09-17T18:29:50Z</time>
      </trkpt>
      <trkpt lat="47.34109" lon="0.37939">
        <ele>98</ele>
        <time>2019-09-17T18:31:20Z</time>
      </trkpt>
      <trkpt lat="47.34219" lon="0.37803">
        <ele>99</ele>
        <time>2019-09-17T18:34:31Z</time>
      </trkpt>
      <trkpt lat="47.34253" lon="0.37668">
        <ele>99</ele>
        <time>2019-09-17T18:36:41Z</time>
      </trkpt>
      <trkpt lat="47.34235" lon="0.37434">
        <ele>97</ele>
        <time>2019-09-17T18:40:14Z</time>
      </trkpt>
      <trkpt lat="47.3424" lon="0.37223">
        <ele>94</ele>
        <time>2019-09-17T18:43:25Z</time>
      </trkpt>
      <trkpt lat="47.34156" lon="0.37213">
        <ele>92</ele>
        <time>2019-09-17T18:45:18Z</time>
      </trkpt>
      <trkpt lat="47.34074" lon="0.37116">
        <ele>92</ele>
        <time>2019-09-17T18:47:38Z</time>
      </trkpt>
      <trkpt lat="47.33957" lon="0.36959">
        <ele>91</ele>
        <time>2019-09-17T18:51:09Z</time>
      </trkpt>
      <trkpt lat="47.33926" lon="0.36944">
        <ele>89</ele>
        <time>2019-09-17T18:51:53Z</time>
      </trkpt>
      <trkpt lat="47.3394" lon="0.36849">
        <ele>92</ele>
        <time>2019-09-17T18:53:21Z</time>
      </trkpt>
      <trkpt lat="47.34036" lon="0.36892">
        <ele>95</ele>
        <time>2019-09-17T18:55:34Z</time>
      </trkpt>
      <trkpt lat="47.34057" lon="0.36682">
        <ele>98</ele>
        <time>2019-09-17T18:58:46Z</time>
      </trkpt>
      <trkpt lat="47.34107" lon="0.36645">
        <ele>100</ele>
        <time>2019-09-17T19:00:01Z</time>
      </trkpt>
      <trkpt lat="47.34005" lon="0.36273">
        <ele>99</ele>
        <time>2019-09-17T19:06:04Z</time>
      </trkpt>
      <trkpt lat="47.34065" lon="0.36073">
        <ele>96</ele>
        <time>2019-09-17T19:09:22Z</time>
      </trkpt>
      <trkpt lat="47.34065" lon="0.35974">
        <ele>94</ele>
        <time>2019-09-17T19:10:51Z</time>
      </trkpt>
      <trkpt lat="47.34052" lon="0.35929">
        <ele>93</ele>
        <time>2019-09-17T19:11:35Z</time>
      </trkpt>
      <trkpt lat="47.34012" lon="0.35924">
        <ele>90</ele>
        <time>2019-09-17T19:12:29Z</time>
      </trkpt>
      <trkpt lat="47.33928" lon="0.35981">
        <ele>77</ele>
        <time>2019-09-17T19:14:32Z</time>
      </trkpt>
      <trkpt lat="47.339" lon="0.35922">
        <ele>70</ele>
        <time>2019-09-17T19:15:38Z</time>
      </trkpt>
      <trkpt lat="47.33856" lon="0.35747">
        <ele>63</ele>
        <time>2019-09-17T19:18:26Z</time>
      </trkpt>
      <trkpt lat="47.33876" lon="0.35974">
        <ele>65</ele>
        <time>2019-09-17T19:21:53Z</time>
      </trkpt>
      <trkpt lat="47.3385" lon="0.36107">
        <ele>66</ele>
        <time>2019-09-17T19:23:59Z</time>
      </trkpt>
      <trkpt lat="47.33768" lon="0.36199">
        <ele>65</ele>
        <time>2019-09-17T19:26:16Z</time>
      </trkpt>
      <trkpt lat="47.33673" lon="0.36272">
        <ele>63</ele>
        <time>2019-09-17T19:28:39Z</time>
      </trkpt>
      <trkpt lat="47.33586" lon="0.36373">
        <ele>58</ele>
        <time>2019-09-17T19:31:07Z</time>
      </trkpt>
      <trkpt lat="47.33538" lon="0.36475">
        <ele>59</ele>
        <time>2019-09-17T19:32:59Z</time>
      </trkpt>
      <trkpt lat="47.33533" lon="0.36639">
        <ele>59</ele>
        <time>2019-09-17T19:35:27Z</time>
      </trkpt>
      <trkpt lat="47.33588" lon="0.36899">
        <ele>57</ele>
        <time>2019-09-17T19:39:34Z</time>
      </trkpt>
      <trkpt lat="47.33591" lon="0.36991">
        <ele>58</ele>
        <time>2019-09-17T19:40:57Z</time>
      </trkpt>
      <trkpt lat="47.33584" lon="0.37176">
        <ele>66</ele>
        <time>2019-09-17T19:43:45Z</time>
      </trkpt>
      <trkpt lat="47.33562" lon="0.37231">
        <ele>65</ele>
        <time>2019-09-17T19:44:42Z</time>
      </trkpt>
      <trkpt lat="47.33522" lon="0.37369">
        <ele>66</ele>
        <time>2019-09-17T19:46:58Z</time>
      </trkpt>
      <trkpt lat="47.33452" lon="0.37446">
        <ele>63</ele>
        <time>2019-09-17T19:48:55Z</time>
      </trkpt>
      <trkpt lat="47.33431" lon="0.3763">
        <ele>81</ele>
        <time>2019-09-17T19:51:43Z</time>
      </trkpt>
      <trkpt lat="47.33492" lon="0.3754">
        <ele>81</ele>
        <time>2019-09-17T19:53:38Z</time>
      </trkpt>
      <trkpt lat="47.33559" lon="0.37528">
        <ele>89</ele>
        <time>2019-09-17T19:55:09Z</time>
      </trkpt>
      <trkpt lat="47.33626" lon="0.37566">
        <ele>97</ele>
        <time>2019-09-17T19:56:44Z</time>
      </trkpt>
      <trkpt lat="47.33658" lon="0.37686">
        <ele>102</ele>
        <time>2019-09-17T19:58:41Z</time>
      </trkpt>
      <trkpt lat="47.3367" lon="0.37759">
        <ele>104</ele>
        <time>2019-09-17T19:59:49Z</time>
      </trkpt>
      <trkpt lat="47.33661" lon="0.37879">
        <ele>103</ele>
        <time>2019-09-17T20:01:38Z</time>
      </trkpt>
      <trkpt lat="47.33647" lon="0.37961">
        <ele>101</ele>
        <time>2019-09-17T20:02:55Z</time>
      </trkpt>
      <trkpt lat="47.33582" lon="0.38321">
        <ele>94</ele>
        <time>2019-09-17T20:08:31Z</time>
      </trkpt>
      <trkpt lat="47.33551" lon="0.38371">
        <ele>94</ele>
        <time>2019-09-17T20:09:33Z</time>
      </trkpt>
      <trkpt lat="47.33525" lon="0.38427">
        <ele>94</ele>
        <time>2019-09-17T20:10:34Z</time>
      </trkpt>
      <trkpt lat="47.3349" lon="0.38453">
        <ele>94</ele>
        <time>2019-09-17T20:11:26Z</time>
      </trkpt>
      <trkpt lat="47.3349" lon="0.38542">
        <ele>94</ele>
        <time>2019-09-17T20:12:47Z</time>
      </trkpt>
      <trkpt lat="47.33527" lon="0.38705">
        <ele>93</ele>
        <time>2019-09-17T20:15:22Z</time>
      </trkpt>
      <trkpt lat="47.33461" lon="0.38741">
        <ele>91</ele>
        <time>2019-09-17T20:16:56Z</time>
      </trkpt>
      <trkpt lat="47.33371" lon="0.38807">
        <ele>87</ele>
        <time>2019-09-17T20:19:10Z</time>
      </trkpt>
      <trkpt lat="47.33319" lon="0.38825">
        <ele>86</ele>
        <time>2019-09-17T20:20:22Z</time>
      </trkpt>
      <trkpt lat="47.33259" lon="0.38853">
        <ele>83</ele>
        <time>2019-09-17T20:21:46Z</time>
      </trkpt>
      <trkpt lat="47.33217" lon="0.38858">
        <ele>79</ele>
        <time>2019-09-17T20:22:42Z</time>
      </trkpt>
      <trkpt lat="47.33203" lon="0.38881">
        <ele>76</ele>
        <time>2019-09-17T20:23:10Z</time>
      </trkpt>
      <trkpt lat="47.33146" lon="0.38922">
        <ele>67</ele>
        <time>2019-09-17T20:24:34Z</time>
      </trkpt>
      <trkpt lat="47.33131" lon="0.38971">
        <ele>60</ele>
        <time>2019-09-17T20:25:23Z</time>
      </trkpt>
      <trkpt lat="47.33101" lon="0.38981">
        <ele>55</ele>
        <time>2019-09-17T20:26:04Z</time>
      </trkpt>
      <trkpt lat="47.3306" lon="0.38994">
        <ele>49</ele>
        <time>2019-09-17T20:27:00Z</time>
      </trkpt>
      <trkpt lat="47.33029" lon="0.39096">
        <ele>55</ele>
        <time>2019-09-17T20:28:41Z</time>
      </trkpt>
      <trkpt lat="47.32985" lon="0.39185">
        <ele>54</ele>
        <time>2019-09-17T20:30:21Z</time>
      </trkpt>
      <trkpt lat="47.32951" lon="0.39236">
        <ele>52</ele>
        <time>2019-09-17T20:31:26Z</time>
      </trkpt>
      <trkpt lat="47.32918" lon="0.39274">
        <ele>51</ele>
        <time>2019-09-17T20:32:21Z</time>
      </trkpt>
      <trkpt lat="47.32845" lon="0.39318">
        <ele>50</ele>
        <time>2019-09-17T20:34:07Z</time>
      </trkpt>
      <trkpt lat="47.32792" lon="0.39364">
        <ele>47</ele>
        <time>2019-09-17T20:35:29Z</time>
      </trkpt>
      <trkpt lat="47.32771" lon="0.39438">
        <ele>47</ele>
        <time>2019-09-17T20:36:41Z</time>
      </trkpt>
      <trkpt lat="47.32773" lon="0.39573">
        <ele>47</ele>
        <time>2019-09-17T20:38:43Z</time>
      </trkpt>
      <trkpt lat="47.32688" lon="0.39599">
        <ele>55</ele>
        <time>2019-09-17T20:40:39Z</time>
      </trkpt>
      <trkpt lat="47.32712" lon="0.39708">
        <ele>52</ele>
        <time>2019-09-17T20:42:23Z</time>
      </trkpt>
      <trkpt lat="47.32703" lon="0.39757">
        <ele>52</ele>
        <time>2019-09-17T20:43:09Z</time>
      </trkpt>
      <trkpt lat="47.32724" lon="0.39813">
        <ele>49</ele>
        <time>2019-09-17T20:44:07Z</time>
      </trkpt>
      <trkpt lat="47.3276" lon="0.39851">
        <ele>47</ele>
        <time>2019-09-17T20:45:06Z</time>
      </trkpt>
      <trkpt lat="47.32783" lon="0.3991">
        <ele>46</ele>
        <time>2019-09-17T20:46:07Z</time>
      </trkpt>
    </trkseg>
  </trk>
</gpx>